sensor_id;sensor_type;location;lat;lon;timestamp;P1;P2;P0
36453;PMS5003;22478;51.740;-1.314;2023-05-19T00:01:57;11;8;
36453;PMS5003;22478;51.740;-1.314;2023-05-19T00:04:25;14;12;
36453;PMS5003;22478;51.740;-1.314;2023-05-19T00:06:53;12;11;
36453;PMS5003;22478;51.740;-1.314;2023-05-19T00:09:21;13;12;
36453;PMS5003;22478;51.740;-1.314;2023-05-19T00:11:49;9;8;
36453;PMS5003;22478;51.740;-1.314;2023-05-19T00:14:17;15;14;
36453;PMS5003;22478;51.740;-1.314;2023-05-19T00:16:46;13;11;
36453;PMS5003;22478;51.740;-1.314;2023-05-19T00:19:14;18;11;
36453;PMS5003;22478;51.740;-1.314;2023-05-19T00:21:41;12;12;
36453;PMS5003;22478;51.740;-1.314;2023-05-19T00:24:08;10;10;
36453;PMS5003;22478;51.740;-1.314;2023-05-19T00:26:36;13;11;
36453;PMS5003;22478;51.740;-1.314;2023-05-19T00:29:03;12;10;
36453;PMS5003;22478;51.740;-1.314;2023-05-19T00:31:30;11;10;
36453;PMS5003;22478;51.740;-1.314;2023-05-19T00:33:58;13;10;
36453;PMS5003;22478;51.740;-1.314;2023-05-19T00:36:26;14;13;
36453;PMS5003;22478;51.740;-1.314;2023-05-19T00:38:53;13;12;
36453;PMS5003;22478;51.740;-1.314;2023-05-19T00:41:20;15;10;
36453;PMS5003;22478;51.740;-1.314;2023-05-19T00:43:47;13;12;
36453;PMS5003;22478;51.740;-1.314;2023-05-19T00:46:16;15;13;
36453;PMS5003;22478;51.740;-1.314;2023-05-19T00:48:44;12;11;
36453;PMS5003;22478;51.740;-1.314;2023-05-19T00:51:11;15;12;
36453;PMS5003;22478;51.740;-1.314;2023-05-19T00:53:39;16;13;
36453;PMS5003;22478;51.740;-1.314;2023-05-19T00:56:06;13;12;
36453;PMS5003;22478;51.740;-1.314;2023-05-19T00:58:34;18;16;
36453;PMS5003;22478;51.740;-1.314;2023-05-19T01:01:02;14;11;
36453;PMS5003;22478;51.740;-1.314;2023-05-19T01:03:29;18;12;
36453;PMS5003;22478;51.740;-1.314;2023-05-19T01:05:58;15;11;
36453;PMS5003;22478;51.740;-1.314;2023-05-19T01:08:26;11;11;
36453;PMS5003;22478;51.740;-1.314;2023-05-19T01:10:53;13;11;
36453;PMS5003;22478;51.740;-1.314;2023-05-19T01:13:20;13;12;
36453;PMS5003;22478;51.740;-1.314;2023-05-19T01:15:53;11;11;
36453;PMS5003;22478;51.740;-1.314;2023-05-19T01:18:28;13;10;
36453;PMS5003;22478;51.740;-1.314;2023-05-19T01:21:08;16;12;
36453;PMS5003;22478;51.740;-1.314;2023-05-19T01:23:53;11;11;
36453;PMS5003;22478;51.740;-1.314;2023-05-19T01:26:34;12;12;
36453;PMS5003;22478;51.740;-1.314;2023-05-19T01:29:27;17;13;
36453;PMS5003;22478;51.740;-1.314;2023-05-19T01:32:04;14;13;
36453;PMS5003;22478;51.740;-1.314;2023-05-19T01:34:33;14;12;
36453;PMS5003;22478;51.740;-1.314;2023-05-19T01:37:04;15;13;
36453;PMS5003;22478;51.740;-1.314;2023-05-19T01:39:34;19;16;
36453;PMS5003;22478;51.740;-1.314;2023-05-19T01:42:02;14;13;
36453;PMS5003;22478;51.740;-1.314;2023-05-19T01:44:32;10;10;
36453;PMS5003;22478;51.740;-1.314;2023-05-19T01:47:00;17;12;
36453;PMS5003;22478;51.740;-1.314;2023-05-19T01:49:27;11;11;
36453;PMS5003;22478;51.740;-1.314;2023-05-19T01:51:55;11;11;
36453;PMS5003;22478;51.740;-1.314;2023-05-19T01:54:22;18;13;
36453;PMS5003;22478;51.740;-1.314;2023-05-19T01:56:51;17;16;
36453;PMS5003;22478;51.740;-1.314;2023-05-19T01:59:28;16;16;
36453;PMS5003;22478;51.740;-1.314;2023-05-19T02:02:08;19;15;
36453;PMS5003;22478;51.740;-1.314;2023-05-19T02:04:50;17;16;
36453;PMS5003;22478;51.740;-1.314;2023-05-19T02:07:24;17;12;
36453;PMS5003;22478;51.740;-1.314;2023-05-19T02:10:02;18;14;
36453;PMS5003;22478;51.740;-1.314;2023-05-19T02:12:33;21;18;
36453;PMS5003;22478;51.740;-1.314;2023-05-19T02:15:03;19;16;
36453;PMS5003;22478;51.740;-1.314;2023-05-19T02:17:34;16;15;
36453;PMS5003;22478;51.740;-1.314;2023-05-19T02:20:04;15;14;
36453;PMS5003;22478;51.740;-1.314;2023-05-19T02:22:32;17;15;
36453;PMS5003;22478;51.740;-1.314;2023-05-19T02:24:59;12;12;
36453;PMS5003;22478;51.740;-1.314;2023-05-19T02:27:27;16;14;
36453;PMS5003;22478;51.740;-1.314;2023-05-19T02:29:54;17;17;
36453;PMS5003;22478;51.740;-1.314;2023-05-19T02:32:21;14;12;
36453;PMS5003;22478;51.740;-1.314;2023-05-19T02:34:48;18;13;
36453;PMS5003;22478;51.740;-1.314;2023-05-19T02:37:15;13;13;
36453;PMS5003;22478;51.740;-1.314;2023-05-19T02:39:43;15;13;
36453;PMS5003;22478;51.740;-1.314;2023-05-19T02:42:10;14;13;
36453;PMS5003;22478;51.740;-1.314;2023-05-19T02:44:37;19;17;
36453;PMS5003;22478;51.740;-1.314;2023-05-19T02:47:04;13;11;
36453;PMS5003;22478;51.740;-1.314;2023-05-19T02:49:32;17;14;
36453;PMS5003;22478;51.740;-1.314;2023-05-19T02:51:59;18;14;
36453;PMS5003;22478;51.740;-1.314;2023-05-19T02:54:27;19;14;
36453;PMS5003;22478;51.740;-1.314;2023-05-19T02:56:54;16;14;
36453;PMS5003;22478;51.740;-1.314;2023-05-19T02:59:21;17;16;
36453;PMS5003;22478;51.740;-1.314;2023-05-19T03:01:49;14;13;
36453;PMS5003;22478;51.740;-1.314;2023-05-19T03:04:16;17;17;
36453;PMS5003;22478;51.740;-1.314;2023-05-19T03:06:43;15;11;
36453;PMS5003;22478;51.740;-1.314;2023-05-19T03:09:10;16;13;
36453;PMS5003;22478;51.740;-1.314;2023-05-19T03:11:38;16;14;
36453;PMS5003;22478;51.740;-1.314;2023-05-19T03:14:05;19;14;
36453;PMS5003;22478;51.740;-1.314;2023-05-19T03:16:32;19;16;
36453;PMS5003;22478;51.740;-1.314;2023-05-19T03:18:59;12;11;
36453;PMS5003;22478;51.740;-1.314;2023-05-19T03:21:26;15;13;
36453;PMS5003;22478;51.740;-1.314;2023-05-19T03:23:54;19;17;
36453;PMS5003;22478;51.740;-1.314;2023-05-19T03:26:21;18;18;
36453;PMS5003;22478;51.740;-1.314;2023-05-19T03:28:48;23;15;
36453;PMS5003;22478;51.740;-1.314;2023-05-19T03:31:15;20;17;
36453;PMS5003;22478;51.740;-1.314;2023-05-19T03:33:42;18;16;
36453;PMS5003;22478;51.740;-1.314;2023-05-19T03:36:10;18;17;
36453;PMS5003;22478;51.740;-1.314;2023-05-19T03:38:37;24;17;
36453;PMS5003;22478;51.740;-1.314;2023-05-19T03:41:04;18;15;
36453;PMS5003;22478;51.740;-1.314;2023-05-19T03:43:32;20;16;
36453;PMS5003;22478;51.740;-1.314;2023-05-19T03:45:59;16;16;
36453;PMS5003;22478;51.740;-1.314;2023-05-19T03:48:26;20;14;
36453;PMS5003;22478;51.740;-1.314;2023-05-19T03:50:54;18;17;
36453;PMS5003;22478;51.740;-1.314;2023-05-19T03:53:21;18;15;
36453;PMS5003;22478;51.740;-1.314;2023-05-19T03:55:49;17;16;
36453;PMS5003;22478;51.740;-1.314;2023-05-19T03:58:17;17;13;
36453;PMS5003;22478;51.740;-1.314;2023-05-19T04:00:44;18;15;
36453;PMS5003;22478;51.740;-1.314;2023-05-19T04:03:10;20;18;
36453;PMS5003;22478;51.740;-1.314;2023-05-19T04:05:38;20;18;
36453;PMS5003;22478;51.740;-1.314;2023-05-19T04:08:05;19;14;
36453;PMS5003;22478;51.740;-1.314;2023-05-19T04:10:32;20;19;
36453;PMS5003;22478;51.740;-1.314;2023-05-19T04:12:59;17;16;
36453;PMS5003;22478;51.740;-1.314;2023-05-19T04:15:25;19;15;
36453;PMS5003;22478;51.740;-1.314;2023-05-19T04:17:53;18;16;
36453;PMS5003;22478;51.740;-1.314;2023-05-19T04:20:21;23;20;
36453;PMS5003;22478;51.740;-1.314;2023-05-19T04:22:48;23;17;
36453;PMS5003;22478;51.740;-1.314;2023-05-19T04:25:15;19;16;
36453;PMS5003;22478;51.740;-1.314;2023-05-19T04:27:42;16;16;
36453;PMS5003;22478;51.740;-1.314;2023-05-19T04:30:10;17;13;
36453;PMS5003;22478;51.740;-1.314;2023-05-19T04:32:37;16;14;
36453;PMS5003;22478;51.740;-1.314;2023-05-19T04:35:05;20;17;
36453;PMS5003;22478;51.740;-1.314;2023-05-19T04:37:33;17;16;
36453;PMS5003;22478;51.740;-1.314;2023-05-19T04:40:01;23;16;
36453;PMS5003;22478;51.740;-1.314;2023-05-19T04:42:28;19;17;
36453;PMS5003;22478;51.740;-1.314;2023-05-19T04:44:55;20;17;
36453;PMS5003;22478;51.740;-1.314;2023-05-19T04:47:21;15;15;
36453;PMS5003;22478;51.740;-1.314;2023-05-19T04:49:49;19;15;
36453;PMS5003;22478;51.740;-1.314;2023-05-19T04:52:17;19;18;
36453;PMS5003;22478;51.740;-1.314;2023-05-19T04:54:44;22;18;
36453;PMS5003;22478;51.740;-1.314;2023-05-19T04:57:11;16;16;
36453;PMS5003;22478;51.740;-1.314;2023-05-19T04:59:38;17;12;
36453;PMS5003;22478;51.740;-1.314;2023-05-19T05:02:05;13;13;
36453;PMS5003;22478;51.740;-1.314;2023-05-19T05:04:34;18;13;
36453;PMS5003;22478;51.740;-1.314;2023-05-19T05:07:00;21;16;
36453;PMS5003;22478;51.740;-1.314;2023-05-19T05:09:28;17;14;
36453;PMS5003;22478;51.740;-1.314;2023-05-19T05:11:55;20;17;
36453;PMS5003;22478;51.740;-1.314;2023-05-19T05:14:23;22;16;
36453;PMS5003;22478;51.740;-1.314;2023-05-19T05:16:50;14;14;
36453;PMS5003;22478;51.740;-1.314;2023-05-19T05:19:19;20;20;
36453;PMS5003;22478;51.740;-1.314;2023-05-19T05:21:46;21;15;
36453;PMS5003;22478;51.740;-1.314;2023-05-19T05:24:14;22;18;
36453;PMS5003;22478;51.740;-1.314;2023-05-19T05:26:43;18;16;
36453;PMS5003;22478;51.740;-1.314;2023-05-19T05:29:10;19;17;
36453;PMS5003;22478;51.740;-1.314;2023-05-19T05:31:38;22;18;
36453;PMS5003;22478;51.740;-1.314;2023-05-19T05:34:05;24;18;
36453;PMS5003;22478;51.740;-1.314;2023-05-19T05:36:32;23;17;
36453;PMS5003;22478;51.740;-1.314;2023-05-19T05:38:59;18;16;
36453;PMS5003;22478;51.740;-1.314;2023-05-19T05:41:27;17;17;
36453;PMS5003;22478;51.740;-1.314;2023-05-19T05:43:54;17;14;
36453;PMS5003;22478;51.740;-1.314;2023-05-19T05:46:21;24;19;
36453;PMS5003;22478;51.740;-1.314;2023-05-19T05:48:48;20;16;
36453;PMS5003;22478;51.740;-1.314;2023-05-19T05:51:16;22;18;
36453;PMS5003;22478;51.740;-1.314;2023-05-19T05:53:48;19;17;
36453;PMS5003;22478;51.740;-1.314;2023-05-19T05:56:18;18;18;
36453;PMS5003;22478;51.740;-1.314;2023-05-19T05:58:46;14;14;
36453;PMS5003;22478;51.740;-1.314;2023-05-19T06:01:14;20;17;
36453;PMS5003;22478;51.740;-1.314;2023-05-19T06:03:41;15;13;
36453;PMS5003;22478;51.740;-1.314;2023-05-19T06:06:09;17;15;
36453;PMS5003;22478;51.740;-1.314;2023-05-19T06:08:37;20;17;
36453;PMS5003;22478;51.740;-1.314;2023-05-19T06:11:05;15;14;
36453;PMS5003;22478;51.740;-1.314;2023-05-19T06:13:32;19;18;
36453;PMS5003;22478;51.740;-1.314;2023-05-19T06:15:59;21;18;
36453;PMS5003;22478;51.740;-1.314;2023-05-19T06:18:26;19;14;
36453;PMS5003;22478;51.740;-1.314;2023-05-19T06:20:54;17;17;
36453;PMS5003;22478;51.740;-1.314;2023-05-19T06:23:21;13;13;
36453;PMS5003;22478;51.740;-1.314;2023-05-19T06:25:49;23;22;
36453;PMS5003;22478;51.740;-1.314;2023-05-19T06:28:16;19;14;
36453;PMS5003;22478;51.740;-1.314;2023-05-19T06:30:43;18;16;
36453;PMS5003;22478;51.740;-1.314;2023-05-19T06:33:11;22;19;
36453;PMS5003;22478;51.740;-1.314;2023-05-19T06:35:39;18;17;
36453;PMS5003;22478;51.740;-1.314;2023-05-19T06:38:06;20;16;
36453;PMS5003;22478;51.740;-1.314;2023-05-19T06:40:34;18;17;
36453;PMS5003;22478;51.740;-1.314;2023-05-19T06:43:02;22;20;
36453;PMS5003;22478;51.740;-1.314;2023-05-19T06:45:29;26;19;
36453;PMS5003;22478;51.740;-1.314;2023-05-19T06:47:56;24;20;
36453;PMS5003;22478;51.740;-1.314;2023-05-19T06:50:24;27;22;
36453;PMS5003;22478;51.740;-1.314;2023-05-19T06:52:51;19;15;
36453;PMS5003;22478;51.740;-1.314;2023-05-19T06:55:18;15;15;
36453;PMS5003;22478;51.740;-1.314;2023-05-19T06:57:46;21;21;
36453;PMS5003;22478;51.740;-1.314;2023-05-19T07:00:14;19;17;
36453;PMS5003;22478;51.740;-1.314;2023-05-19T07:02:41;25;19;
36453;PMS5003;22478;51.740;-1.314;2023-05-19T07:05:09;22;16;
36453;PMS5003;22478;51.740;-1.314;2023-05-19T07:07:36;21;20;
36453;PMS5003;22478;51.740;-1.314;2023-05-19T07:10:03;21;19;
36453;PMS5003;22478;51.740;-1.314;2023-05-19T07:12:31;26;19;
36453;PMS5003;22478;51.740;-1.314;2023-05-19T07:14:58;17;14;
36453;PMS5003;22478;51.740;-1.314;2023-05-19T07:17:25;20;20;
36453;PMS5003;22478;51.740;-1.314;2023-05-19T07:19:53;26;20;
36453;PMS5003;22478;51.740;-1.314;2023-05-19T07:22:20;22;18;
36453;PMS5003;22478;51.740;-1.314;2023-05-19T07:24:47;18;16;
36453;PMS5003;22478;51.740;-1.314;2023-05-19T07:27:15;20;17;
36453;PMS5003;22478;51.740;-1.314;2023-05-19T07:29:42;21;15;
36453;PMS5003;22478;51.740;-1.314;2023-05-19T07:32:10;15;15;
36453;PMS5003;22478;51.740;-1.314;2023-05-19T07:34:37;22;22;
36453;PMS5003;22478;51.740;-1.314;2023-05-19T07:37:06;23;22;
36453;PMS5003;22478;51.740;-1.314;2023-05-19T07:39:33;19;15;
36453;PMS5003;22478;51.740;-1.314;2023-05-19T07:42:01;21;16;
36453;PMS5003;22478;51.740;-1.314;2023-05-19T07:44:28;26;23;
36453;PMS5003;22478;51.740;-1.314;2023-05-19T07:46:56;21;20;
36453;PMS5003;22478;51.740;-1.314;2023-05-19T07:49:23;25;19;
36453;PMS5003;22478;51.740;-1.314;2023-05-19T07:51:50;23;19;
36453;PMS5003;22478;51.740;-1.314;2023-05-19T07:54:17;25;23;
36453;PMS5003;22478;51.740;-1.314;2023-05-19T07:56:45;21;18;
36453;PMS5003;22478;51.740;-1.314;2023-05-19T07:59:13;26;16;
36453;PMS5003;22478;51.740;-1.314;2023-05-19T08:01:41;19;18;
36453;PMS5003;22478;51.740;-1.314;2023-05-19T08:04:09;20;17;
36453;PMS5003;22478;51.740;-1.314;2023-05-19T08:06:36;21;21;
36453;PMS5003;22478;51.740;-1.314;2023-05-19T08:09:03;25;23;
36453;PMS5003;22478;51.740;-1.314;2023-05-19T08:11:30;19;17;
36453;PMS5003;22478;51.740;-1.314;2023-05-19T08:13:58;19;15;
36453;PMS5003;22478;51.740;-1.314;2023-05-19T08:16:25;24;20;
36453;PMS5003;22478;51.740;-1.314;2023-05-19T08:18:52;21;16;
36453;PMS5003;22478;51.740;-1.314;2023-05-19T08:21:19;15;15;
36453;PMS5003;22478;51.740;-1.314;2023-05-19T08:23:46;20;15;
36453;PMS5003;22478;51.740;-1.314;2023-05-19T08:26:13;24;19;
36453;PMS5003;22478;51.740;-1.314;2023-05-19T08:28:41;18;16;
36453;PMS5003;22478;51.740;-1.314;2023-05-19T08:31:08;23;19;
36453;PMS5003;22478;51.740;-1.314;2023-05-19T08:33:36;16;16;
36453;PMS5003;22478;51.740;-1.314;2023-05-19T08:36:03;19;15;
36453;PMS5003;22478;51.740;-1.314;2023-05-19T08:38:31;14;14;
36453;PMS5003;22478;51.740;-1.314;2023-05-19T08:40:58;20;18;
36453;PMS5003;22478;51.740;-1.314;2023-05-19T08:43:26;21;15;
36453;PMS5003;22478;51.740;-1.314;2023-05-19T08:45:53;22;17;
36453;PMS5003;22478;51.740;-1.314;2023-05-19T08:48:21;18;15;
36453;PMS5003;22478;51.740;-1.314;2023-05-19T08:50:51;19;16;
36453;PMS5003;22478;51.740;-1.314;2023-05-19T08:53:26;21;21;
36453;PMS5003;22478;51.740;-1.314;2023-05-19T08:56:04;21;19;
36453;PMS5003;22478;51.740;-1.314;2023-05-19T08:58:36;16;14;
36453;PMS5003;22478;51.740;-1.314;2023-05-19T09:01:05;24;22;
36453;PMS5003;22478;51.740;-1.314;2023-05-19T09:03:33;18;17;
36453;PMS5003;22478;51.740;-1.314;2023-05-19T09:06:01;18;13;
36453;PMS5003;22478;51.740;-1.314;2023-05-19T09:08:30;14;14;
36453;PMS5003;22478;51.740;-1.314;2023-05-19T09:10:57;17;15;
36453;PMS5003;22478;51.740;-1.314;2023-05-19T09:13:24;19;13;
36453;PMS5003;22478;51.740;-1.314;2023-05-19T09:15:51;19;15;
36453;PMS5003;22478;51.740;-1.314;2023-05-19T09:18:22;21;17;
36453;PMS5003;22478;51.740;-1.314;2023-05-19T09:20:50;23;19;
36453;PMS5003;22478;51.740;-1.314;2023-05-19T09:23:22;18;15;
36453;PMS5003;22478;51.740;-1.314;2023-05-19T09:25:52;15;12;
36453;PMS5003;22478;51.740;-1.314;2023-05-19T09:28:23;19;17;
36453;PMS5003;22478;51.740;-1.314;2023-05-19T09:30:59;23;22;
36453;PMS5003;22478;51.740;-1.314;2023-05-19T09:33:28;23;17;
36453;PMS5003;22478;51.740;-1.314;2023-05-19T09:35:55;17;17;
36453;PMS5003;22478;51.740;-1.314;2023-05-19T09:38:23;15;14;
36453;PMS5003;22478;51.740;-1.314;2023-05-19T09:40:50;20;17;
36453;PMS5003;22478;51.740;-1.314;2023-05-19T09:43:18;19;16;
36453;PMS5003;22478;51.740;-1.314;2023-05-19T09:45:47;21;21;
36453;PMS5003;22478;51.740;-1.314;2023-05-19T09:48:15;17;16;
36453;PMS5003;22478;51.740;-1.314;2023-05-19T09:50:42;19;18;
36453;PMS5003;22478;51.740;-1.314;2023-05-19T09:53:11;24;22;
36453;PMS5003;22478;51.740;-1.314;2023-05-19T09:55:39;18;16;
36453;PMS5003;22478;51.740;-1.314;2023-05-19T09:58:06;20;18;
36453;PMS5003;22478;51.740;-1.314;2023-05-19T10:00:34;20;19;
36453;PMS5003;22478;51.740;-1.314;2023-05-19T10:03:03;28;22;
36453;PMS5003;22478;51.740;-1.314;2023-05-19T10:05:31;20;16;
36453;PMS5003;22478;51.740;-1.314;2023-05-19T10:07:58;26;22;
36453;PMS5003;22478;51.740;-1.314;2023-05-19T10:10:27;21;19;
36453;PMS5003;22478;51.740;-1.314;2023-05-19T10:12:54;20;17;
36453;PMS5003;22478;51.740;-1.314;2023-05-19T10:15:22;22;21;
36453;PMS5003;22478;51.740;-1.314;2023-05-19T10:17:50;19;17;
36453;PMS5003;22478;51.740;-1.314;2023-05-19T10:20:18;19;19;
36453;PMS5003;22478;51.740;-1.314;2023-05-19T10:22:46;18;18;
36453;PMS5003;22478;51.740;-1.314;2023-05-19T10:25:14;15;15;
36453;PMS5003;22478;51.740;-1.314;2023-05-19T10:27:42;19;18;
36453;PMS5003;22478;51.740;-1.314;2023-05-19T10:30:13;26;17;
36453;PMS5003;22478;51.740;-1.314;2023-05-19T10:32:47;19;16;
36453;PMS5003;22478;51.740;-1.314;2023-05-19T10:35:17;22;17;
36453;PMS5003;22478;51.740;-1.314;2023-05-19T10:38:00;19;17;
36453;PMS5003;22478;51.740;-1.314;2023-05-19T10:40:35;21;20;
36453;PMS5003;22478;51.740;-1.314;2023-05-19T10:43:11;24;18;
36453;PMS5003;22478;51.740;-1.314;2023-05-19T10:45:47;20;18;
36453;PMS5003;22478;51.740;-1.314;2023-05-19T10:48:18;24;20;
36453;PMS5003;22478;51.740;-1.314;2023-05-19T10:50:46;21;15;
36453;PMS5003;22478;51.740;-1.314;2023-05-19T10:53:15;19;18;
36453;PMS5003;22478;51.740;-1.314;2023-05-19T10:55:43;19;16;
36453;PMS5003;22478;51.740;-1.314;2023-05-19T10:58:11;25;21;
36453;PMS5003;22478;51.740;-1.314;2023-05-19T11:00:38;22;20;
36453;PMS5003;22478;51.740;-1.314;2023-05-19T11:03:13;24;20;
36453;PMS5003;22478;51.740;-1.314;2023-05-19T11:05:42;25;23;
36453;PMS5003;22478;51.740;-1.314;2023-05-19T11:08:10;23;21;
36453;PMS5003;22478;51.740;-1.314;2023-05-19T11:10:37;19;17;
36453;PMS5003;22478;51.740;-1.314;2023-05-19T11:13:05;22;19;
36453;PMS5003;22478;51.740;-1.314;2023-05-19T11:15:33;21;19;
36453;PMS5003;22478;51.740;-1.314;2023-05-19T11:18:01;24;19;
36453;PMS5003;22478;51.740;-1.314;2023-05-19T11:20:30;27;24;
36453;PMS5003;22478;51.740;-1.314;2023-05-19T11:23:03;24;24;
36453;PMS5003;22478;51.740;-1.314;2023-05-19T11:25:40;26;21;
36453;PMS5003;22478;51.740;-1.314;2023-05-19T11:28:09;24;19;
36453;PMS5003;22478;51.740;-1.314;2023-05-19T11:30:37;28;26;
36453;PMS5003;22478;51.740;-1.314;2023-05-19T11:33:06;33;27;
36453;PMS5003;22478;51.740;-1.314;2023-05-19T11:35:36;26;23;
36453;PMS5003;22478;51.740;-1.314;2023-05-19T11:38:04;22;21;
36453;PMS5003;22478;51.740;-1.314;2023-05-19T11:40:32;27;21;
36453;PMS5003;22478;51.740;-1.314;2023-05-19T11:42:59;25;22;
36453;PMS5003;22478;51.740;-1.314;2023-05-19T11:45:27;35;28;
36453;PMS5003;22478;51.740;-1.314;2023-05-19T11:47:57;25;22;
36453;PMS5003;22478;51.740;-1.314;2023-05-19T11:50:24;31;28;
36453;PMS5003;22478;51.740;-1.314;2023-05-19T11:52:53;25;21;
36453;PMS5003;22478;51.740;-1.314;2023-05-19T11:55:20;34;30;
36453;PMS5003;22478;51.740;-1.314;2023-05-19T11:57:50;32;29;
36453;PMS5003;22478;51.740;-1.314;2023-05-19T12:00:22;24;24;
36453;PMS5003;22478;51.740;-1.314;2023-05-19T12:02:50;28;24;
36453;PMS5003;22478;51.740;-1.314;2023-05-19T12:05:18;31;22;
36453;PMS5003;22478;51.740;-1.314;2023-05-19T12:07:46;24;23;
36453;PMS5003;22478;51.740;-1.314;2023-05-19T12:10:14;25;21;
36453;PMS5003;22478;51.740;-1.314;2023-05-19T12:12:42;19;16;
36453;PMS5003;22478;51.740;-1.314;2023-05-19T12:15:09;15;12;
36453;PMS5003;22478;51.740;-1.314;2023-05-19T12:17:37;20;16;
36453;PMS5003;22478;51.740;-1.314;2023-05-19T12:20:04;19;17;
36453;PMS5003;22478;51.740;-1.314;2023-05-19T12:22:32;28;24;
36453;PMS5003;22478;51.740;-1.314;2023-05-19T12:25:01;19;17;
36453;PMS5003;22478;51.740;-1.314;2023-05-19T12:27:29;21;19;
36453;PMS5003;22478;51.740;-1.314;2023-05-19T12:30:01;19;15;
36453;PMS5003;22478;51.740;-1.314;2023-05-19T12:32:32;17;15;
36453;PMS5003;22478;51.740;-1.314;2023-05-19T12:35:00;20;17;
36453;PMS5003;22478;51.740;-1.314;2023-05-19T12:37:28;18;14;
36453;PMS5003;22478;51.740;-1.314;2023-05-19T12:39:56;19;15;
36453;PMS5003;22478;51.740;-1.314;2023-05-19T12:42:25;22;19;
36453;PMS5003;22478;51.740;-1.314;2023-05-19T12:44:52;17;12;
36453;PMS5003;22478;51.740;-1.314;2023-05-19T12:47:19;20;17;
36453;PMS5003;22478;51.740;-1.314;2023-05-19T12:49:54;21;21;
36453;PMS5003;22478;51.740;-1.314;2023-05-19T12:52:22;16;15;
36453;PMS5003;22478;51.740;-1.314;2023-05-19T12:54:50;23;19;
36453;PMS5003;22478;51.740;-1.314;2023-05-19T12:57:24;20;15;
36453;PMS5003;22478;51.740;-1.314;2023-05-19T12:59:51;17;14;
36453;PMS5003;22478;51.740;-1.314;2023-05-19T13:02:18;19;17;
36453;PMS5003;22478;51.740;-1.314;2023-05-19T13:04:46;20;16;
36453;PMS5003;22478;51.740;-1.314;2023-05-19T13:07:13;21;19;
36453;PMS5003;22478;51.740;-1.314;2023-05-19T13:09:40;18;17;
36453;PMS5003;22478;51.740;-1.314;2023-05-19T13:12:07;22;17;
36453;PMS5003;22478;51.740;-1.314;2023-05-19T13:14:34;20;14;
36453;PMS5003;22478;51.740;-1.314;2023-05-19T13:17:02;17;16;
36453;PMS5003;22478;51.740;-1.314;2023-05-19T13:19:30;23;21;
36453;PMS5003;22478;51.740;-1.314;2023-05-19T13:21:57;24;20;
36453;PMS5003;22478;51.740;-1.314;2023-05-19T13:24:24;27;25;
36453;PMS5003;22478;51.740;-1.314;2023-05-19T13:26:52;23;22;
36453;PMS5003;22478;51.740;-1.314;2023-05-19T13:29:19;21;20;
36453;PMS5003;22478;51.740;-1.314;2023-05-19T13:31:46;32;27;
36453;PMS5003;22478;51.740;-1.314;2023-05-19T13:34:14;26;23;
36453;PMS5003;22478;51.740;-1.314;2023-05-19T13:36:41;33;29;
36453;PMS5003;22478;51.740;-1.314;2023-05-19T13:39:08;39;31;
36453;PMS5003;22478;51.740;-1.314;2023-05-19T13:41:35;30;29;
36453;PMS5003;22478;51.740;-1.314;2023-05-19T13:44:02;24;22;
36453;PMS5003;22478;51.740;-1.314;2023-05-19T13:46:30;29;27;
36453;PMS5003;22478;51.740;-1.314;2023-05-19T13:48:57;26;21;
36453;PMS5003;22478;51.740;-1.314;2023-05-19T13:51:24;21;19;
36453;PMS5003;22478;51.740;-1.314;2023-05-19T13:53:51;21;21;
36453;PMS5003;22478;51.740;-1.314;2023-05-19T13:56:19;28;22;
36453;PMS5003;22478;51.740;-1.314;2023-05-19T13:58:46;22;15;
36453;PMS5003;22478;51.740;-1.314;2023-05-19T14:01:13;24;20;
36453;PMS5003;22478;51.740;-1.314;2023-05-19T14:03:41;24;17;
36453;PMS5003;22478;51.740;-1.314;2023-05-19T14:06:08;21;16;
36453;PMS5003;22478;51.740;-1.314;2023-05-19T14:08:36;26;20;
36453;PMS5003;22478;51.740;-1.314;2023-05-19T14:11:02;23;19;
36453;PMS5003;22478;51.740;-1.314;2023-05-19T14:13:30;22;15;
36453;PMS5003;22478;51.740;-1.314;2023-05-19T14:15:57;24;22;
36453;PMS5003;22478;51.740;-1.314;2023-05-19T14:18:24;21;19;
36453;PMS5003;22478;51.740;-1.314;2023-05-19T14:20:52;20;18;
36453;PMS5003;22478;51.740;-1.314;2023-05-19T14:23:19;22;21;
36453;PMS5003;22478;51.740;-1.314;2023-05-19T14:25:47;17;17;
36453;PMS5003;22478;51.740;-1.314;2023-05-19T14:28:14;19;16;
36453;PMS5003;22478;51.740;-1.314;2023-05-19T14:30:41;25;19;
36453;PMS5003;22478;51.740;-1.314;2023-05-19T14:33:08;23;19;
36453;PMS5003;22478;51.740;-1.314;2023-05-19T14:35:35;24;21;
36453;PMS5003;22478;51.740;-1.314;2023-05-19T14:38:02;20;18;
36453;PMS5003;22478;51.740;-1.314;2023-05-19T14:40:30;20;19;
36453;PMS5003;22478;51.740;-1.314;2023-05-19T14:42:57;22;20;
36453;PMS5003;22478;51.740;-1.314;2023-05-19T14:45:25;21;17;
36453;PMS5003;22478;51.740;-1.314;2023-05-19T14:47:52;24;20;
36453;PMS5003;22478;51.740;-1.314;2023-05-19T14:50:20;16;14;
36453;PMS5003;22478;51.740;-1.314;2023-05-19T14:52:47;21;19;
36453;PMS5003;22478;51.740;-1.314;2023-05-19T14:55:14;24;22;
36453;PMS5003;22478;51.740;-1.314;2023-05-19T14:57:41;26;22;
36453;PMS5003;22478;51.740;-1.314;2023-05-19T15:00:09;22;19;
36453;PMS5003;22478;51.740;-1.314;2023-05-19T15:02:37;28;22;
36453;PMS5003;22478;51.740;-1.314;2023-05-19T15:05:04;30;25;
36453;PMS5003;22478;51.740;-1.314;2023-05-19T15:07:31;27;22;
36453;PMS5003;22478;51.740;-1.314;2023-05-19T15:09:58;26;22;
36453;PMS5003;22478;51.740;-1.314;2023-05-19T15:12:25;19;18;
36453;PMS5003;22478;51.740;-1.314;2023-05-19T15:14:53;25;17;
36453;PMS5003;22478;51.740;-1.314;2023-05-19T15:17:20;24;20;
36453;PMS5003;22478;51.740;-1.314;2023-05-19T15:19:48;25;19;
36453;PMS5003;22478;51.740;-1.314;2023-05-19T15:22:15;21;17;
36453;PMS5003;22478;51.740;-1.314;2023-05-19T15:24:42;23;17;
36453;PMS5003;22478;51.740;-1.314;2023-05-19T15:27:10;24;20;
36453;PMS5003;22478;51.740;-1.314;2023-05-19T15:29:37;22;15;
36453;PMS5003;22478;51.740;-1.314;2023-05-19T15:32:05;21;18;
36453;PMS5003;22478;51.740;-1.314;2023-05-19T15:34:33;20;19;
36453;PMS5003;22478;51.740;-1.314;2023-05-19T15:37:00;17;16;
36453;PMS5003;22478;51.740;-1.314;2023-05-19T15:39:28;17;15;
36453;PMS5003;22478;51.740;-1.314;2023-05-19T15:41:55;17;17;
36453;PMS5003;22478;51.740;-1.314;2023-05-19T15:44:23;19;18;
36453;PMS5003;22478;51.740;-1.314;2023-05-19T15:46:51;19;17;
36453;PMS5003;22478;51.740;-1.314;2023-05-19T15:49:18;22;16;
36453;PMS5003;22478;51.740;-1.314;2023-05-19T15:51:45;18;13;
36453;PMS5003;22478;51.740;-1.314;2023-05-19T15:54:12;18;12;
36453;PMS5003;22478;51.740;-1.314;2023-05-19T15:56:39;16;15;
36453;PMS5003;22478;51.740;-1.314;2023-05-19T15:59:06;17;16;
36453;PMS5003;22478;51.740;-1.314;2023-05-19T16:01:33;18;16;
36453;PMS5003;22478;51.740;-1.314;2023-05-19T16:04:01;14;12;
36453;PMS5003;22478;51.740;-1.314;2023-05-19T16:06:28;17;14;
36453;PMS5003;22478;51.740;-1.314;2023-05-19T16:08:55;17;14;